Time;durP1;ratioP1;P1;durP2;ratioP2;P2;SDS_P1;SDS_P2;PMS_P1;PMS_P2;Temp;Humidity;BMP_temperature;BMP_pressure;BME280_temperature;BME280_humidity;BME280_pressure;Samples;Min_cycle;Max_cycle;Signal;HPM_P1;HPM_P2
2022/08/25 00:00:39;;;;;;;;;;;;;;;21.96;80.42;95069.94;5112501;27;1572;-50
2022/08/25 00:03:06;;;;;;;;;;;;;;;22.01;79.27;95080.13;5112840;28;1594;-50
2022/08/25 00:05:32;;;;;;;;;;;;;;;21.97;79.13;95082.50;5114924;27;1614;-50
2022/08/25 00:07:58;;;;;;;;;;;;;;;21.87;80.52;95092.28;5112704;28;1999;-50
2022/08/25 00:10:24;;;;;;;;;;;;;;;21.73;81.36;95095.22;5112370;27;1549;-50
2022/08/25 00:12:50;;;;;;;;;;;;;;;21.75;81.43;95093.09;5112743;27;1630;-50
2022/08/25 00:15:16;;;;;;;;;;;;;;;21.81;81.04;95096.75;5112297;28;1597;-50
2022/08/25 00:17:42;;;;;;;;;;;;;;;21.86;80.81;95096.09;5112456;28;1622;-50
2022/08/25 00:20:08;;;;;;;;;;;;;;;21.85;80.73;95092.50;5112309;28;1594;-50
2022/08/25 00:22:35;;;;;;;;;;;;;;;21.87;80.91;95082.22;5112515;28;1541;-50
2022/08/25 00:25:01;;;;;;;;;;;;;;;21.89;80.58;95093.69;5112555;28;1516;-50
2022/08/25 00:27:27;;;;;;;;;;;;;;;21.93;80.12;95091.34;5112365;27;1979;-50
2022/08/25 00:29:53;;;;;;;;;;;;;;;22.01;79.41;95091.84;5112039;27;1613;-50
2022/08/25 00:32:19;;;;;;;;;;;;;;;22.14;78.79;95087.22;5111928;28;1586;-50
2022/08/25 00:34:45;;;;;;;;;;;;;;;22.18;78.56;95086.53;5112439;28;1560;-50
2022/08/25 00:37:11;;;;;;;;;;;;;;;22.15;78.89;95080.75;5112169;27;1663;-50
2022/08/25 00:39:38;;;;;;;;;;;;;;;22.17;78.71;95082.16;5111872;28;1576;-50
2022/08/25 00:42:05;;;;;;;;;;;;;;;22.25;78.27;95069.25;5111825;28;1539;-50
2022/08/25 00:44:34;;;;;;;;;;;;;;;22.22;78.36;95057.78;5113118;27;1551;-50
2022/08/25 00:47:00;;;;;;;;;;;;;;;22.16;78.73;95057.91;5112221;27;1991;-50
2022/08/25 00:49:39;;;;;;;;;;;;;;;22.20;78.30;95053.63;5129812;27;1476;-50
2022/08/25 00:52:08;;;;;;;;;;;;;;;22.21;78.22;95055.28;5131876;27;1586;-50
2022/08/25 00:54:38;;;;;;;;;;;;;;;22.18;78.60;95058.50;5132126;27;1616;-50
2022/08/25 00:57:05;;;;;;;;;;;;;;;22.09;79.43;95058.00;5131296;27;1898;-50
2022/08/25 00:59:31;;;;;;;;;;;;;;;22.11;78.66;95047.69;5132010;27;1418;-50
2022/08/25 01:01:58;;;;;;;;;;;;;;;22.03;80.47;95046.16;5131860;27;1520;-50
2022/08/25 01:04:24;;;;;;;;;;;;;;;21.95;80.01;95051.09;5131522;27;1578;-50
2022/08/25 01:06:51;;;;;;;;;;;;;;;21.88;81.15;95056.69;5131429;27;2000;-50
2022/08/25 01:09:18;;;;;;;;;;;;;;;21.88;80.94;95056.69;5131625;27;1848;-50
2022/08/25 01:11:45;;;;;;;;;;;;;;;21.84;80.86;95058.22;5131269;27;1410;-50
2022/08/25 01:14:15;;;;;;;;;;;;;;;21.81;81.34;95056.78;5131864;27;1456;-50
2022/08/25 01:16:42;;;;;;;;;;;;;;;21.87;80.83;95046.03;5131619;27;1543;-50
2022/08/25 01:19:10;;;;;;;;;;;;;;;21.85;81.04;95054.41;5131437;27;1616;-50
2022/08/25 01:21:38;;;;;;;;;;;;;;;21.76;81.00;95061.25;5131438;28;1538;-50
2022/08/25 01:24:05;;;;;;;;;;;;;;;21.63;82.28;95065.84;5131443;28;1476;-50
2022/08/25 01:26:32;;;;;;;;;;;;;;;21.72;81.21;95058.19;5131927;27;1583;-50
2022/08/25 01:31:44;;;;;;;;;;;;;;;21.75;82.69;95062.34;5135699;27;1590;-50
2022/08/25 01:34:11;;;;;;;;;;;;;;;21.55;82.87;95081.66;5135477;27;1823;-50
2022/08/25 01:36:37;;;;;;;;;;;;;;;21.52;83.42;95076.69;5135821;27;1586;-50
2022/08/25 01:39:03;;;;;;;;;;;;;;;21.59;82.91;95075.53;5135383;27;1578;-50
2022/08/25 01:41:32;;;;;;;;;;;;;;;21.66;81.97;95080.03;5135662;27;1622;-50
2022/08/25 01:43:59;;;;;;;;;;;;;;;21.79;81.43;95079.84;5132168;27;1524;-50
2022/08/25 01:46:25;;;;;;;;;;;;;;;21.79;81.77;95077.94;5133020;27;1487;-50
2022/08/25 01:48:51;;;;;;;;;;;;;;;21.84;80.95;95075.38;5135403;27;1988;-50
2022/08/25 01:51:24;;;;;;;;;;;;;;;21.98;80.26;95078.69;5134990;27;1527;-50
2022/08/25 01:53:50;;;;;;;;;;;;;;;22.05;79.99;95086.75;5135423;27;1550;-50
2022/08/25 01:56:16;;;;;;;;;;;;;;;22.01;80.70;95066.53;5134838;27;1532;-50
2022/08/25 01:58:44;;;;;;;;;;;;;;;22.00;80.64;95062.13;5135722;27;1540;-50
2022/08/25 02:01:14;;;;;;;;;;;;;;;22.07;80.08;95065.59;5134851;27;1559;-50
2022/08/25 02:03:41;;;;;;;;;;;;;;;22.07;80.48;95067.47;5135461;27;1532;-50
2022/08/25 02:06:10;;;;;;;;;;;;;;;21.90;81.70;95067.34;5134677;27;1669;-50
2022/08/25 02:08:37;;;;;;;;;;;;;;;21.83;81.98;95068.28;5134993;27;1910;-50
2022/08/25 02:11:03;;;;;;;;;;;;;;;21.88;81.62;95067.56;5134927;27;1513;-50
2022/08/25 02:13:29;;;;;;;;;;;;;;;21.97;80.78;95059.91;5134822;27;1535;-50
2022/08/25 02:15:56;;;;;;;;;;;;;;;22.00;80.93;95060.22;5135283;27;1407;-50
2022/08/25 02:18:23;;;;;;;;;;;;;;;22.03;80.63;95059.78;5134632;27;1433;-50
2022/08/25 02:20:49;;;;;;;;;;;;;;;22.11;80.38;95052.31;5134733;27;1531;-50
2022/08/25 02:23:15;;;;;;;;;;;;;;;22.06;80.60;95055.75;5134500;27;1563;-50
2022/08/25 02:25:42;;;;;;;;;;;;;;;21.99;81.26;95057.78;5135132;27;1559;-50
2022/08/25 02:28:08;;;;;;;;;;;;;;;21.92;82.04;95051.59;5134334;27;1992;-50
2022/08/25 02:30:38;;;;;;;;;;;;;;;21.80;82.73;95059.75;5134888;27;1541;-50
2022/08/25 02:33:04;;;;;;;;;;;;;;;21.72;84.00;95066.34;5134185;27;1542;-50
2022/08/25 02:35:31;;;;;;;;;;;;;;;21.69;84.64;95068.72;5134383;27;1535;-50
2022/08/25 02:37:57;;;;;;;;;;;;;;;21.62;85.79;95071.50;5134393;27;1602;-50
2022/08/25 02:40:23;;;;;;;;;;;;;;;21.61;86.07;95067.16;5134525;27;1592;-50
2022/08/25 02:42:50;;;;;;;;;;;;;;;21.68;85.11;95064.31;5134480;27;1418;-50
2022/08/25 02:45:17;;;;;;;;;;;;;;;21.75;85.20;95073.22;5120484;27;1548;-50
2022/08/25 02:47:43;;;;;;;;;;;;;;;21.73;85.17;95080.78;5113965;27;1913;-50
2022/08/25 02:50:10;;;;;;;;;;;;;;;21.62;87.18;95085.13;5114301;28;1556;-49
2022/08/25 02:52:37;;;;;;;;;;;;;;;21.43;90.01;95092.47;5114242;28;1596;-50
2022/08/25 02:55:04;;;;;;;;;;;;;;;21.36;89.39;95095.28;5113961;27;1641;-50
2022/08/25 02:57:30;;;;;;;;;;;;;;;21.18;88.90;95106.19;5113562;27;1873;-50
2022/08/25 02:59:57;;;;;;;;;;;;;;;21.08;89.75;95103.16;5113989;27;1474;-50
2022/08/25 03:02:24;;;;;;;;;;;;;;;21.05;89.30;95102.56;5113977;28;1537;-50
2022/08/25 03:04:50;;;;;;;;;;;;;;;21.13;88.51;95104.16;5113802;27;1559;-49
2022/08/25 03:07:17;;;;;;;;;;;;;;;21.13;89.01;95098.72;5113769;28;1909;-49
2022/08/25 03:09:43;;;;;;;;;;;;;;;21.10;90.47;95099.19;5113926;27;1599;-49
2022/08/25 03:12:10;;;;;;;;;;;;;;;21.04;91.42;95089.22;5113825;27;1595;-49
2022/08/25 03:14:37;;;;;;;;;;;;;;;21.01;91.86;95089.69;5113247;27;1447;-49
2022/08/25 03:17:04;;;;;;;;;;;;;;;21.08;91.25;95095.00;5113512;28;1555;-49
2022/08/25 03:19:30;;;;;;;;;;;;;;;21.01;91.49;95089.69;5113602;28;1534;-49
2022/08/25 03:21:58;;;;;;;;;;;;;;;21.01;92.11;95095.09;5113257;27;1515;-49
2022/08/25 03:24:24;;;;;;;;;;;;;;;21.05;91.06;95099.84;5113174;27;1558;-49
2022/08/25 03:26:54;;;;;;;;;;;;;;;20.96;93.15;95103.97;5113388;28;1909;-49
2022/08/25 03:29:29;;;;;;;;;;;;;;;20.90;94.51;95098.59;5113436;28;1442;-49
2022/08/25 03:31:56;;;;;;;;;;;;;;;20.91;93.96;95090.22;5113413;28;1596;-50
2022/08/25 03:34:22;;;;;;;;;;;;;;;20.83;95.55;95091.34;5113239;27;1564;-50
2022/08/25 03:36:50;;;;;;;;;;;;;;;20.78;96.12;95084.94;5113335;28;1859;-49
2022/08/25 03:39:17;;;;;;;;;;;;;;;20.83;96.74;95075.03;5131069;27;1442;-50
2022/08/25 03:41:43;;;;;;;;;;;;;;;20.88;96.08;95068.09;5115214;27;1717;-49
2022/08/25 03:44:09;;;;;;;;;;;;;;;20.90;96.92;95058.66;5128860;27;1736;-49
2022/08/25 03:46:43;;;;;;;;;;;;;;;20.90;95.86;95055.94;5113283;28;1605;-49
2022/08/25 03:49:14;;;;;;;;;;;;;;;20.96;94.23;95048.75;5112713;28;1914;-49
2022/08/25 03:51:47;;;;;;;;;;;;;;;20.95;94.87;95052.53;5112998;28;1602;-49
2022/08/25 03:54:14;;;;;;;;;;;;;;;20.85;95.33;95042.22;5112969;28;1555;-49
2022/08/25 03:56:41;;;;;;;;;;;;;;;20.77;94.67;95045.22;5112793;27;1482;-49
2022/08/25 03:59:08;;;;;;;;;;;;;;;20.76;94.65;95066.13;5112544;27;1630;-49
2022/08/25 04:01:41;;;;;;;;;;;;;;;20.72;94.89;95056.78;5113042;27;1540;-49
2022/08/25 04:04:07;;;;;;;;;;;;;;;20.77;95.73;95061.53;5112541;28;1470;-49
2022/08/25 04:06:34;;;;;;;;;;;;;;;20.64;97.53;95063.34;5112863;27;1562;-49
2022/08/25 04:09:00;;;;;;;;;;;;;;;20.53;99.00;95068.66;5112159;27;1910;-49
2022/08/25 04:11:26;;;;;;;;;;;;;;;20.51;98.38;95068.03;5112642;27;1568;-49
2022/08/25 04:13:55;;;;;;;;;;;;;;;20.50;98.91;95077.25;5112599;27;1557;-49
2022/08/25 04:16:22;;;;;;;;;;;;;;;20.43;98.05;95078.16;5112545;28;1423;-49
2022/08/25 04:18:49;;;;;;;;;;;;;;;20.51;97.59;95074.31;5112371;27;1524;-49
2022/08/25 04:21:15;;;;;;;;;;;;;;;20.69;95.29;95068.09;5130280;27;1557;-49
2022/08/25 04:23:42;;;;;;;;;;;;;;;20.64;97.09;95076.06;5132508;27;1613;-49
2022/08/25 04:26:13;;;;;;;;;;;;;;;20.57;97.84;95067.97;5132155;27;1517;-49
2022/08/25 04:28:39;;;;;;;;;;;;;;;20.63;98.24;95060.84;5132067;27;1979;-49
2022/08/25 04:31:06;;;;;;;;;;;;;;;20.71;98.54;95063.25;5132259;27;1582;-50
2022/08/25 04:33:33;;;;;;;;;;;;;;;20.69;98.32;95057.22;5132296;27;1598;-49
2022/08/25 04:35:59;;;;;;;;;;;;;;;20.78;98.36;95053.16;5112219;28;1560;-49
2022/08/25 04:38:26;;;;;;;;;;;;;;;20.77;98.62;95045.22;5111901;27;1447;-48
2022/08/25 04:40:59;;;;;;;;;;;;;;;20.75;98.25;95042.72;5111798;27;1558;-48
2022/08/25 04:43:25;;;;;;;;;;;;;;;20.79;98.28;95037.66;5113385;27;1537;-49
2022/08/25 04:45:52;;;;;;;;;;;;;;;20.78;98.82;95030.59;5113816;27;1532;-49
2022/08/25 04:48:18;;;;;;;;;;;;;;;20.72;100.00;95037.75;5111774;28;1914;-50
2022/08/25 04:50:44;;;;;;;;;;;;;;;20.75;99.12;95041.91;5111776;27;1647;-49
2022/08/25 04:53:10;;;;;;;;;;;;;;;20.74;99.27;95035.66;5111923;28;1563;-49
2022/08/25 04:55:44;;;;;;;;;;;;;;;20.82;98.54;95032.63;5111466;27;1561;-49
2022/08/25 04:58:11;;;;;;;;;;;;;;;21.06;97.11;95043.63;5111414;28;1507;-49
2022/08/25 05:00:38;;;;;;;;;;;;;;;21.12;98.41;95031.00;5111516;28;1580;-50
2022/08/25 05:03:04;;;;;;;;;;;;;;;21.12;98.66;95031.00;5110814;28;1594;-49
2022/08/25 05:05:30;;;;;;;;;;;;;;;21.18;97.57;95035.50;5111875;28;1568;-49
2022/08/25 05:07:57;;;;;;;;;;;;;;;21.26;97.58;95038.72;5129378;27;1910;-49
2022/08/25 05:10:23;;;;;;;;;;;;;;;21.30;96.40;95043.72;5131331;27;1395;-49
2022/08/25 05:12:49;;;;;;;;;;;;;;;21.33;95.47;95048.69;5131769;27;1531;-49
2022/08/25 05:18:00;;;;;;;;;;;;;;;21.40;96.56;95055.69;5131456;27;1566;-50
2022/08/25 05:20:26;;;;;;;;;;;;;;;21.46;94.55;95053.97;5131454;27;1653;-49
2022/08/25 05:22:52;;;;;;;;;;;;;;;21.43;97.30;95065.28;5131456;28;1633;-49
2022/08/25 05:25:18;;;;;;;;;;;;;;;21.41;97.74;95067.41;5131174;28;1547;-54
2022/08/25 05:27:44;;;;;;;;;;;;;;;21.47;95.50;95061.06;5131472;28;1996;-49
2022/08/25 05:30:10;;;;;;;;;;;;;;;21.55;95.70;95058.03;5131209;28;1606;-49
2022/08/25 05:32:37;;;;;;;;;;;;;;;21.63;95.74;95054.97;5131443;28;1558;-49
2022/08/25 05:35:03;;;;;;;;;;;;;;;21.70;94.97;95046.69;5131072;28;1410;-49
2022/08/25 05:37:29;;;;;;;;;;;;;;;21.88;94.17;95037.63;5131387;28;1562;-49
2022/08/25 05:39:55;;;;;;;;;;;;;;;21.94;93.02;95036.69;5131442;28;1540;-49
2022/08/25 05:42:22;;;;;;;;;;;;;;;22.01;92.38;95031.97;5131131;28;1606;-49
2022/08/25 05:44:48;;;;;;;;;;;;;;;21.97;93.87;95029.97;5131616;27;1556;-49
2022/08/25 05:47:14;;;;;;;;;;;;;;;21.98;94.69;95028.88;5131193;28;2030;-52
2022/08/25 05:49:40;;;;;;;;;;;;;;;21.91;95.45;95033.59;5131375;28;1546;-51
2022/08/25 05:52:06;;;;;;;;;;;;;;;21.95;93.32;95030.19;5130904;28;1514;-51
2022/08/25 05:54:32;;;;;;;;;;;;;;;21.96;94.49;95028.28;5131259;28;1569;-51
2022/08/25 05:56:59;;;;;;;;;;;;;;;21.97;94.61;95022.63;5131049;28;1621;-51
2022/08/25 05:59:25;;;;;;;;;;;;;;;21.98;94.99;95020.72;5111132;28;1596;-51
2022/08/25 06:04:36;;;;;;;;;;;;;;;21.93;96.17;95026.88;5130848;28;1551;-50
2022/08/25 06:07:02;;;;;;;;;;;;;;;21.94;96.01;95024.97;5131051;28;1906;-50
2022/08/25 06:09:28;;;;;;;;;;;;;;;22.08;94.89;95017.41;5131024;28;1527;-50
2022/08/25 06:11:54;;;;;;;;;;;;;;;22.15;94.07;95020.84;5131290;28;1573;-52
2022/08/25 06:14:21;;;;;;;;;;;;;;;22.24;95.18;95027.59;5134322;27;1429;-51
2022/08/25 06:16:50;;;;;;;;;;;;;;;22.14;96.13;95028.19;5134588;27;1554;-52
2022/08/25 06:19:16;;;;;;;;;;;;;;;22.02;96.31;95025.47;5134951;27;1584;-51
2022/08/25 06:21:42;;;;;;;;;;;;;;;21.97;97.40;95016.34;5135079;27;1553;-52
2022/08/25 06:24:09;;;;;;;;;;;;;;;21.99;96.32;95019.66;5134612;27;1638;-52
2022/08/25 06:26:36;;;;;;;;;;;;;;;21.94;94.27;95025.78;5134650;27;1771;-51
2022/08/25 06:29:02;;;;;;;;;;;;;;;22.05;93.53;95028.78;5134512;27;1902;-52
2022/08/25 06:31:28;;;;;;;;;;;;;;;22.06;93.69;95030.41;5134358;27;1853;-51
2022/08/25 06:33:54;;;;;;;;;;;;;;;22.17;93.37;95022.25;5134920;27;1591;-52
2022/08/25 06:36:20;;;;;;;;;;;;;;;22.41;93.47;95022.28;5134195;27;1632;-51
2022/08/25 06:38:46;;;;;;;;;;;;;;;22.58;92.90;95019.66;5134523;27;1527;-51
2022/08/25 06:41:13;;;;;;;;;;;;;;;22.76;92.36;95015.94;5134139;27;1553;-51
2022/08/25 06:43:40;;;;;;;;;;;;;;;22.87;92.19;95015.09;5132956;27;1535;-51
2022/08/25 06:46:13;;;;;;;;;;;;;;;23.09;89.78;95012.56;5131830;27;1452;-51
2022/08/25 06:48:39;;;;;;;;;;;;;;;23.32;88.61;95021.72;5134352;27;2003;-53
2022/08/25 06:51:10;;;;;;;;;;;;;;;23.63;87.19;95022.28;5115914;27;1605;-51
2022/08/25 06:53:36;;;;;;;;;;;;;;;23.95;84.68;95014.38;5134426;27;1346;-51
2022/08/25 06:56:03;;;;;;;;;;;;;;;24.16;80.51;95018.25;5134216;27;1561;-51
2022/08/25 06:58:30;;;;;;;;;;;;;;;24.20;79.56;95003.03;5133982;27;1503;-51
2022/08/25 07:00:56;;;;;;;;;;;;;;;24.81;77.28;95010.44;5133835;27;1523;-51
2022/08/25 07:03:22;;;;;;;;;;;;;;;25.79;74.62;95010.47;5133812;27;1618;-51
2022/08/25 07:05:53;;;;;;;;;;;;;;;26.56;70.46;95012.97;5133880;27;2076;-51
2022/08/25 07:08:19;;;;;;;;;;;;;;;26.93;67.00;95012.91;5133615;27;1984;-51
2022/08/25 07:10:45;;;;;;;;;;;;;;;27.00;66.39;95019.00;5134212;27;1636;-51
2022/08/25 07:13:12;;;;;;;;;;;;;;;26.99;67.50;95017.34;5133237;27;1407;-51
2022/08/25 07:15:38;;;;;;;;;;;;;;;27.03;68.66;95017.63;5134314;27;1547;-51
2022/08/25 07:18:05;;;;;;;;;;;;;;;27.24;66.92;95021.25;5133806;27;1573;-51
2022/08/25 07:20:33;;;;;;;;;;;;;;;27.47;65.33;95020.03;5133401;27;1512;-51
2022/08/25 07:22:59;;;;;;;;;;;;;;;27.16;66.50;95017.13;5133779;27;1614;-51
2022/08/25 07:25:25;;;;;;;;;;;;;;;27.31;66.72;95016.38;5132781;27;1610;-51
2022/08/25 07:27:51;;;;;;;;;;;;;;;26.86;70.12;95024.16;5115486;27;1961;-51
2022/08/25 07:30:17;;;;;;;;;;;;;;;27.13;67.69;95020.44;5133527;27;1560;-51
2022/08/25 07:32:43;;;;;;;;;;;;;;;27.49;66.77;95019.72;5133329;27;1453;-51
2022/08/25 07:35:19;;;;;;;;;;;;;;;27.75;62.24;95024.16;5133282;27;1528;-51
2022/08/25 07:37:47;;;;;;;;;;;;;;;27.64;62.98;95022.50;5133019;27;1598;-51
2022/08/25 07:40:21;;;;;;;;;;;;;;;27.70;63.63;95024.19;5133222;27;1569;-51
2022/08/25 07:42:48;;;;;;;;;;;;;;;27.34;65.95;95007.63;5133074;27;1571;-51
2022/08/25 07:45:14;;;;;;;;;;;;;;;27.54;64.56;95020.56;5119276;27;1561;-51
2022/08/25 07:47:40;;;;;;;;;;;;;;;27.87;64.15;95018.44;5112777;28;1983;-51
2022/08/25 07:50:08;;;;;;;;;;;;;;;27.83;61.91;95009.91;5113254;28;1555;-51
2022/08/25 07:52:34;;;;;;;;;;;;;;;27.55;62.85;95013.16;5130980;27;1558;-51
2022/08/25 07:55:00;;;;;;;;;;;;;;;26.65;65.96;95008.66;5132978;27;1541;-51
2022/08/25 07:57:28;;;;;;;;;;;;;;;26.71;64.75;95012.25;5132736;27;1454;-51
2022/08/25 07:59:55;;;;;;;;;;;;;;;26.73;64.80;95010.91;5133089;27;1598;-51
2022/08/25 08:02:21;;;;;;;;;;;;;;;26.40;67.94;95014.78;5132762;27;1599;-51
2022/08/25 08:04:48;;;;;;;;;;;;;;;26.70;65.12;95011.44;5128621;27;1537;-51
2022/08/25 08:07:32;;;;;;;;;;;;;;;27.06;64.41;95006.94;5132560;27;1992;-51
2022/08/25 08:09:58;;;;;;;;;;;;;;;26.88;64.05;95015.63;5132571;27;1645;-51
2022/08/25 08:12:24;;;;;;;;;;;;;;;26.86;63.94;95023.31;5132722;27;1550;-51
2022/08/25 08:14:50;;;;;;;;;;;;;;;27.05;65.85;95008.06;5132476;27;1498;-51
2022/08/25 08:17:17;;;;;;;;;;;;;;;27.24;63.29;94991.91;5132327;27;1640;-51
2022/08/25 08:19:43;;;;;;;;;;;;;;;27.34;64.77;94996.66;5132367;27;1542;-51
2022/08/25 08:22:14;;;;;;;;;;;;;;;27.28;64.81;94997.72;5132198;27;1450;-51
2022/08/25 08:24:43;;;;;;;;;;;;;;;27.47;63.23;94998.06;5132347;27;1525;-51
2022/08/25 08:27:09;;;;;;;;;;;;;;;27.76;61.31;95003.84;5132244;27;1945;-52
2022/08/25 08:29:36;;;;;;;;;;;;;;;27.58;61.45;95001.63;5132530;27;1545;-51
2022/08/25 08:32:03;;;;;;;;;;;;;;;27.60;61.12;94999.44;5112238;27;1528;-51
2022/08/25 08:34:29;;;;;;;;;;;;;;;27.21;64.38;94994.38;5111800;27;1653;-51
2022/08/25 08:36:56;;;;;;;;;;;;;;;26.81;66.10;94996.69;5093850;28;1659;-52
2022/08/25 08:39:22;;;;;;;;;;;;;;;26.78;64.91;94988.97;5112072;27;1556;-51
2022/08/25 08:44:53;;;;;;;;;;;;;;;26.91;65.31;94990.41;5122504;27;1617;-51
2022/08/25 08:47:31;;;;;;;;;;;;;;;26.84;64.34;94982.47;5129962;27;1988;-51
2022/08/25 08:50:16;;;;;;;;;;;;;;;26.76;64.04;94987.63;5131861;27;1477;-51
2022/08/25 08:52:48;;;;;;;;;;;;;;;27.09;62.00;94983.66;5132113;27;1650;-51
2022/08/25 08:55:17;;;;;;;;;;;;;;;26.99;61.86;94984.41;5131465;27;1510;-51
2022/08/25 08:57:46;;;;;;;;;;;;;;;27.11;61.50;94980.59;5131677;27;1614;-51
2022/08/25 09:00:13;;;;;;;;;;;;;;;27.34;60.84;94993.06;5131497;27;1574;-51
2022/08/25 09:02:48;;;;;;;;;;;;;;;27.45;58.86;94983.75;5131915;27;1391;-51
2022/08/25 09:05:15;;;;;;;;;;;;;;;27.21;60.43;94981.47;5131599;27;1512;-51
2022/08/25 09:07:50;;;;;;;;;;;;;;;26.94;60.34;94987.16;5131712;27;1913;-51
2022/08/25 09:10:16;;;;;;;;;;;;;;;26.96;59.94;94978.63;5111330;28;1583;-51
2022/08/25 09:12:42;;;;;;;;;;;;;;;27.19;58.51;94969.94;5111490;28;1537;-51
2022/08/25 09:15:14;;;;;;;;;;;;;;;27.40;58.40;94970.03;5111430;28;1528;-51
2022/08/25 09:17:53;;;;;;;;;;;;;;;27.50;58.40;94961.81;5130004;27;1616;-51
2022/08/25 09:20:31;;;;;;;;;;;;;;;27.35;58.87;94962.59;5131311;27;1438;-51
2022/08/25 09:23:03;;;;;;;;;;;;;;;27.19;60.18;94956.22;5113702;28;1546;-51
2022/08/25 09:25:30;;;;;;;;;;;;;;;27.19;58.74;94955.41;5131491;28;1857;-51
2022/08/25 09:28:07;;;;;;;;;;;;;;;26.95;58.01;94955.88;5131529;28;1909;-51
2022/08/25 09:30:40;;;;;;;;;;;;;;;27.45;56.69;94964.53;5131345;28;1527;-51
2022/08/25 09:33:07;;;;;;;;;;;;;;;27.12;55.32;94960.31;5131758;28;1523;-51
2022/08/25 09:35:34;;;;;;;;;;;;;;;27.37;54.99;94960.41;5131004;28;1534;-51
2022/08/25 09:38:00;;;;;;;;;;;;;;;27.67;56.10;94960.72;5131843;28;1621;-51
2022/08/25 09:40:30;;;;;;;;;;;;;;;28.01;54.74;94952.78;5129212;28;1556;-51
2022/08/25 09:42:58;;;;;;;;;;;;;;;28.15;54.70;94942.91;5131301;28;1567;-51
2022/08/25 09:45:33;;;;;;;;;;;;;;;28.33;54.54;94946.16;5118128;27;1583;-51
2022/08/25 09:47:59;;;;;;;;;;;;;;;28.17;54.02;94948.94;5130528;27;1998;-51
2022/08/25 09:50:29;;;;;;;;;;;;;;;28.27;54.27;94941.75;5115192;27;1388;-51
2022/08/25 09:53:09;;;;;;;;;;;;;;;28.40;54.43;94935.66;5135806;27;1503;-51
2022/08/25 09:55:38;;;;;;;;;;;;;;;28.32;52.11;94944.50;5134858;27;1594;-51
2022/08/25 09:58:14;;;;;;;;;;;;;;;28.16;51.77;94935.47;5135007;27;1571;-51
2022/08/25 10:00:40;;;;;;;;;;;;;;;28.10;54.00;94936.59;5135143;27;1643;-58
2022/08/25 10:03:20;;;;;;;;;;;;;;;28.13;55.36;94945.06;5135143;27;1617;-51
2022/08/25 10:05:56;;;;;;;;;;;;;;;27.73;52.98;94938.47;5135073;27;1542;-51
2022/08/25 10:08:25;;;;;;;;;;;;;;;27.27;54.43;94944.75;5135279;27;1914;-51
2022/08/25 10:10:53;;;;;;;;;;;;;;;26.99;54.92;94943.25;5134798;27;1564;-51
2022/08/25 10:13:20;;;;;;;;;;;;;;;26.73;54.69;94938.78;5134787;27;1510;-51
2022/08/25 10:15:47;;;;;;;;;;;;;;;26.58;57.25;94943.09;5135082;27;1414;-52
2022/08/25 10:18:42;;;;;;;;;;;;;;;26.72;56.13;94937.16;5116842;27;1532;-51
2022/08/25 10:21:13;;;;;;;;;;;;;;;27.01;54.96;94935.59;5121462;27;1655;-50
2022/08/25 10:23:51;;;;;;;;;;;;;;;27.01;53.86;94929.28;5135051;27;1595;-50
2022/08/25 10:26:36;;;;;;;;;;;;;;;27.12;54.32;94927.41;5134871;27;1574;-51
2022/08/25 10:29:08;;;;;;;;;;;;;;;27.12;54.15;94924.66;5134874;27;1945;-51
2022/08/25 10:32:00;;;;;;;;;;;;;;;26.91;53.35;94927.34;5114535;28;1601;-51
2022/08/25 10:34:35;;;;;;;;;;;;;;;26.75;53.61;94922.88;5130012;27;1756;-51
2022/08/25 10:37:24;;;;;;;;;;;;;;;26.59;54.72;94922.81;5134300;27;1586;-50
2022/08/25 10:39:50;;;;;;;;;;;;;;;27.08;53.31;94919.69;5134722;27;1656;-51
2022/08/25 10:42:36;;;;;;;;;;;;;;;27.49;52.56;94924.47;5134172;27;1609;-51
2022/08/25 10:48:14;;;;;;;;;;;;;;;27.91;52.80;94922.59;5134097;27;1913;-51
2022/08/25 10:50:45;;;;;;;;;;;;;;;27.86;53.04;94920.63;5134084;27;1563;-51
2022/08/25 10:53:24;;;;;;;;;;;;;;;27.75;52.86;94919.78;5134093;27;1613;-51
2022/08/25 10:55:59;;;;;;;;;;;;;;;27.74;51.47;94914.59;5134273;27;1548;-50
2022/08/25 10:58:43;;;;;;;;;;;;;;;27.50;51.22;94917.88;5133668;27;1575;-50
2022/08/25 11:01:14;;;;;;;;;;;;;;;27.39;52.74;94913.47;5133089;27;1422;-50
2022/08/25 11:03:51;;;;;;;;;;;;;;;27.29;52.98;94903.31;5133721;27;1535;-51
2022/08/25 11:06:25;;;;;;;;;;;;;;;27.38;52.90;94907.16;5133573;27;1838;-50
2022/08/25 11:08:59;;;;;;;;;;;;;;;27.37;51.98;94905.50;5133991;27;1984;-50
2022/08/25 11:11:25;;;;;;;;;;;;;;;27.36;53.29;94903.88;5133712;27;1522;-50
2022/08/25 11:13:51;;;;;;;;;;;;;;;27.22;52.44;94899.97;5133722;27;1584;-50
2022/08/25 11:16:32;;;;;;;;;;;;;;;27.36;53.12;94903.06;5133573;27;1579;-50
2022/08/25 11:19:06;;;;;;;;;;;;;;;27.50;52.93;94898.66;5133737;27;1520;-50
2022/08/25 11:21:40;;;;;;;;;;;;;;;27.39;51.02;94894.25;5133865;27;1547;-51
2022/08/25 11:24:13;;;;;;;;;;;;;;;27.37;52.39;94897.25;5133362;27;1714;-51
2022/08/25 11:26:42;;;;;;;;;;;;;;;27.34;51.99;94892.34;5133556;27;1621;-51
2022/08/25 11:29:12;;;;;;;;;;;;;;;27.48;51.80;94880.81;5133470;27;2030;-52
2022/08/25 11:31:42;;;;;;;;;;;;;;;27.52;53.81;94881.91;5133436;27;1870;-52
2022/08/25 11:34:13;;;;;;;;;;;;;;;27.35;51.92;94876.69;5133662;27;1607;-52
2022/08/25 11:36:40;;;;;;;;;;;;;;;27.42;51.51;94866.25;5133055;27;1620;-52
2022/08/25 11:39:11;;;;;;;;;;;;;;;27.48;51.65;94867.91;5133024;27;1477;-52
2022/08/25 11:41:40;;;;;;;;;;;;;;;27.58;51.18;94858.84;5132889;27;1323;-52
2022/08/25 11:44:14;;;;;;;;;;;;;;;27.69;52.53;94871.47;5127503;27;1700;-51
2022/08/25 11:46:40;;;;;;;;;;;;;;;27.76;52.85;94863.78;5131487;27;1611;-52
2022/08/25 11:49:25;;;;;;;;;;;;;;;27.88;51.42;94874.47;5133289;27;1913;-52
2022/08/25 11:51:51;;;;;;;;;;;;;;;27.99;51.47;94861.56;5132960;27;1648;-50
2022/08/25 11:54:27;;;;;;;;;;;;;;;27.85;51.01;94858.56;5132924;27;1450;-51
2022/08/25 11:56:56;;;;;;;;;;;;;;;27.58;50.20;94850.59;5132630;27;1582;-50
2022/08/25 11:59:40;;;;;;;;;;;;;;;27.43;50.28;94855.00;5133056;27;1554;-51
2022/08/25 12:02:07;;;;;;;;;;;;;;;27.35;50.05;94852.81;5132885;27;1619;-51
2022/08/25 12:04:38;;;;;;;;;;;;;;;27.24;50.84;94846.47;5133049;27;1606;-51
2022/08/25 12:07:04;;;;;;;;;;;;;;;27.18;51.40;94846.72;5132764;27;1603;-51
2022/08/25 12:09:31;;;;;;;;;;;;;;;27.20;51.48;94841.78;5132869;27;1933;-51
2022/08/25 12:11:58;;;;;;;;;;;;;;;27.36;51.41;94839.91;5132281;27;1645;-51
2022/08/25 12:14:24;;;;;;;;;;;;;;;27.35;51.76;94841.81;5114295;27;1600;-50
2022/08/25 12:16:50;;;;;;;;;;;;;;;27.40;51.19;94843.75;5132719;27;1659;-51
2022/08/25 12:19:22;;;;;;;;;;;;;;;27.24;51.28;94842.88;5132743;27;1503;-51
2022/08/25 12:21:49;;;;;;;;;;;;;;;27.31;50.77;94834.41;5132582;27;1557;-51
2022/08/25 12:24:18;;;;;;;;;;;;;;;27.50;50.16;94831.94;5132829;27;1592;-51
2022/08/25 12:26:47;;;;;;;;;;;;;;;27.79;51.56;94837.66;5112154;28;1513;-51
2022/08/25 12:29:15;;;;;;;;;;;;;;;27.99;50.48;94832.16;5130501;27;1994;-51
2022/08/25 12:31:51;;;;;;;;;;;;;;;27.83;49.49;94842.34;5132119;27;1523;-51
2022/08/25 12:34:29;;;;;;;;;;;;;;;27.75;50.33;94831.09;5132206;27;1583;-51
2022/08/25 12:37:02;;;;;;;;;;;;;;;27.77;50.26;94834.38;5131838;27;1702;-51
2022/08/25 12:39:49;;;;;;;;;;;;;;;27.77;50.78;94831.63;5132500;27;1653;-51
2022/08/25 12:42:21;;;;;;;;;;;;;;;27.77;50.93;94826.97;5121053;27;1541;-59
2022/08/25 12:45:06;;;;;;;;;;;;;;;27.81;49.85;94821.72;5121179;27;1614;-51
2022/08/25 12:47:32;;;;;;;;;;;;;;;27.77;50.07;94817.91;5130083;27;1902;-50
2022/08/25 12:50:17;;;;;;;;;;;;;;;27.65;50.44;94827.25;5131940;27;1549;-51
2022/08/25 12:52:44;;;;;;;;;;;;;;;27.73;50.88;94811.31;5131782;27;1631;-51
2022/08/25 12:55:12;;;;;;;;;;;;;;;27.74;50.59;94821.22;5131824;27;1535;-51
2022/08/25 13:01:06;;;;;;;;;;;;;;;27.85;50.32;94815.41;5014383;27;1950;-51
2022/08/25 13:03:54;;;;;;;;;;;;;;;27.80;52.29;94817.34;5131775;27;1549;-51
2022/08/25 13:06:25;;;;;;;;;;;;;;;27.78;52.29;94814.88;5131721;27;1402;-50
2022/08/25 13:09:10;;;;;;;;;;;;;;;27.72;51.72;94807.75;5113110;27;1987;-50
2022/08/25 13:12:01;;;;;;;;;;;;;;;27.72;52.32;94812.44;5131664;27;1533;-50
2022/08/25 13:14:27;;;;;;;;;;;;;;;27.89;50.27;94802.00;5131515;27;1530;-51
2022/08/25 13:16:59;;;;;;;;;;;;;;;28.04;49.07;94815.69;5131543;27;1605;-50
2022/08/25 13:19:26;;;;;;;;;;;;;;;27.85;50.87;94811.88;5131237;27;1638;-51
2022/08/25 13:21:53;;;;;;;;;;;;;;;27.63;51.89;94823.16;5131431;27;1611;-50
2022/08/25 13:24:25;;;;;;;;;;;;;;;27.57;51.64;94818.78;5130887;27;1470;-51